Time;durP1;ratioP1;P1;durP2;ratioP2;P2;SDS_P1;SDS_P2;PMS_P1;PMS_P2;Temp;Humidity;BMP_temperature;BMP_pressure;BME280_temperature;BME280_humidity;BME280_pressure;Samples;Min_cycle;Max_cycle;Signal;HPM_P1;HPM_P2
2022/05/26 00:02:03;;;;;;;0.10;0.10;;;12.90;99.90;;;;;;4906676;29;20043;-62
2022/05/26 00:04:29;;;;;;;0.10;0.10;;;12.90;99.90;;;;;;4907359;29;20052;-62
2022/05/26 00:06:55;;;;;;;0.10;0.10;;;12.90;99.90;;;;;;4891297;29;20062;-61
2022/05/26 00:09:22;;;;;;;0.00;0.00;;;13.00;99.90;;;;;;4907090;29;20056;-61
2022/05/26 00:11:48;;;;;;;0.03;0.03;;;12.90;99.90;;;;;;4907698;29;20168;-62
2022/05/26 00:14:14;;;;;;;0.05;0.05;;;12.90;99.90;;;;;;4906887;29;20134;-62
2022/05/26 00:16:44;;;;;;;0.00;0.00;;;12.90;99.90;;;;;;4906828;29;20040;-61
2022/05/26 00:19:11;;;;;;;0.00;0.00;;;12.90;99.90;;;;;;4907596;29;20512;-62
2022/05/26 00:21:38;;;;;;;0.00;0.00;;;13.00;99.90;;;;;;4907242;29;20131;-62
2022/05/26 00:24:04;;;;;;;0.13;0.13;;;12.90;99.90;;;;;;4907748;29;20048;-62
2022/05/26 00:26:29;;;;;;;0.10;0.10;;;13.00;99.90;;;;;;4906892;29;20592;-62
2022/05/26 00:28:55;;;;;;;0.15;0.15;;;13.00;99.90;;;;;;4907291;29;20052;-62
2022/05/26 00:31:22;;;;;;;0.10;0.10;;;12.90;99.90;;;;;;4906501;29;20041;-63
2022/05/26 00:33:47;;;;;;;0.05;0.05;;;13.20;99.90;;;;;;4906767;29;20079;-61
2022/05/26 00:36:15;;;;;;;0.00;0.00;;;13.00;99.90;;;;;;4907550;29;20081;-62
2022/05/26 00:38:42;;;;;;;0.00;0.00;;;13.10;99.90;;;;;;4890670;29;20364;-62
2022/05/26 00:41:10;;;;;;;0.00;0.00;;;13.10;99.90;;;;;;4907120;29;20047;-62
2022/05/26 00:43:44;;;;;;;0.00;0.00;;;13.00;99.90;;;;;;4906424;29;20052;-62
2022/05/26 00:46:22;;;;;;;0.00;0.00;;;13.00;99.90;;;;;;4916184;29;20059;-62
2022/05/26 00:48:57;;;;;;;0.05;0.05;;;13.00;99.90;;;;;;4906682;29;20059;-62
2022/05/26 00:51:31;;;;;;;0.40;0.40;;;13.00;99.90;;;;;;4906619;29;20048;-63
2022/05/26 00:54:13;;;;;;;0.60;0.08;;;13.00;99.90;;;;;;4907110;29;20183;-62
2022/05/26 00:56:47;;;;;;;0.10;0.10;;;13.10;99.90;;;;;;4889901;29;20385;-62
2022/05/26 00:59:40;;;;;;;0.00;0.00;;;13.00;99.90;;;;;;4907476;29;20056;-63
2022/05/26 01:02:06;;;;;;;0.20;0.20;;;13.00;99.90;;;;;;4906242;29;20048;-62
2022/05/26 01:04:40;;;;;;;0.00;0.00;;;13.00;99.90;;;;;;4906504;29;20059;-62
2022/05/26 01:07:09;;;;;;;0.00;0.00;;;13.00;99.90;;;;;;4889572;29;20066;-62
2022/05/26 01:09:35;;;;;;;0.00;0.00;;;12.80;99.90;;;;;;4906735;29;20614;-62
2022/05/26 01:12:00;;;;;;;2.03;0.55;;;13.00;99.90;;;;;;4906318;29;20082;-62
2022/05/26 01:14:31;;;;;;;0.00;0.00;;;13.00;99.90;;;;;;4888827;29;20099;-62
2022/05/26 01:17:13;;;;;;;0.00;0.00;;;13.10;99.90;;;;;;4904847;29;20385;-62
2022/05/26 01:19:50;;;;;;;0.00;0.00;;;13.00;99.90;;;;;;4905700;29;20088;-62
2022/05/26 01:22:38;;;;;;;0.00;0.00;;;13.00;99.90;;;;;;4906467;29;20126;-60
2022/05/26 01:25:41;;;;;;;0.00;0.00;;;12.90;99.90;;;;;;4905596;29;20140;-61
2022/05/26 01:28:07;;;;;;;0.10;0.10;;;13.10;99.90;;;;;;4906157;29;20437;-61
2022/05/26 01:30:39;;;;;;;0.65;0.65;;;13.00;99.90;;;;;;4888219;29;20048;-61
2022/05/26 01:33:26;;;;;;;0.28;0.10;;;13.00;99.90;;;;;;4906334;29;20263;-61
2022/05/26 01:35:55;;;;;;;0.00;0.00;;;13.00;99.90;;;;;;4906473;29;20151;-61
2022/05/26 01:38:30;;;;;;;0.00;0.00;;;13.00;99.90;;;;;;4906016;29;20055;-61
2022/05/26 01:41:06;;;;;;;0.00;0.00;;;13.20;99.90;;;;;;4905206;29;20047;-61
2022/05/26 01:43:50;;;;;;;0.10;0.10;;;13.10;99.90;;;;;;4906072;29;20052;-61
2022/05/26 01:46:31;;;;;;;0.00;0.00;;;13.10;99.90;;;;;;4914892;29;20039;-61
2022/05/26 01:48:56;;;;;;;0.08;0.08;;;13.10;99.90;;;;;;4905873;29;20550;-61
2022/05/26 01:51:37;;;;;;;0.03;0.03;;;13.10;99.90;;;;;;4905401;29;20087;-61
2022/05/26 01:54:29;;;;;;;0.00;0.00;;;13.00;99.90;;;;;;4905808;29;20107;-61
2022/05/26 01:57:15;;;;;;;1.08;0.90;;;13.10;99.90;;;;;;4905350;29;20048;-61
2022/05/26 01:59:51;;;;;;;0.08;0.08;;;13.20;99.90;;;;;;4905730;29;20566;-61
2022/05/26 02:02:25;;;;;;;0.00;0.00;;;13.10;99.90;;;;;;4905152;29;20074;-61
2022/05/26 02:04:56;;;;;;;0.00;0.00;;;13.10;99.90;;;;;;4905792;29;20096;-61
2022/05/26 02:07:56;;;;;;;0.00;0.00;;;13.10;99.90;;;;;;4905136;29;20075;-61
2022/05/26 02:10:43;;;;;;;0.00;0.00;;;13.10;99.90;;;;;;4897236;29;20059;-60
2022/05/26 02:13:14;;;;;;;0.00;0.00;;;13.10;99.90;;;;;;4905248;29;20099;-61
2022/05/26 02:15:51;;;;;;;0.32;0.13;;;13.10;99.90;;;;;;4904703;29;20055;-61
2022/05/26 02:18:22;;;;;;;0.00;0.00;;;13.10;99.90;;;;;;4904719;29;20460;-61
2022/05/26 02:20:52;;;;;;;0.00;0.00;;;13.10;99.90;;;;;;4888192;29;20087;-61
2022/05/26 02:23:23;;;;;;;0.00;0.00;;;13.00;99.90;;;;;;4905434;29;20054;-61
2022/05/26 02:25:50;;;;;;;0.00;0.00;;;13.10;99.90;;;;;;4904536;29;20131;-60
2022/05/26 02:28:16;;;;;;;0.15;0.03;;;13.00;99.90;;;;;;4887995;29;20083;-60
2022/05/26 02:30:43;;;;;;;0.00;0.00;;;13.10;99.90;;;;;;4904967;29;20799;-61
2022/05/26 02:33:11;;;;;;;0.00;0.00;;;13.10;99.90;;;;;;4904675;29;20036;-61
2022/05/26 02:35:41;;;;;;;0.10;0.10;;;13.00;99.90;;;;;;4904885;29;20120;-61
2022/05/26 02:38:08;;;;;;;0.00;0.00;;;13.10;99.90;;;;;;4905628;29;20400;-60
2022/05/26 02:40:34;;;;;;;0.00;0.00;;;13.10;99.90;;;;;;4904625;29;20058;-61
2022/05/26 02:43:06;;;;;;;0.00;0.00;;;13.50;99.90;;;;;;4905325;29;20052;-61
2022/05/26 02:45:59;;;;;;;0.00;0.00;;;13.00;99.90;;;;;;4909381;29;20052;-61
2022/05/26 02:48:48;;;;;;;0.00;0.00;;;13.10;99.90;;;;;;4907154;29;20107;-61
2022/05/26 02:51:34;;;;;;;0.00;0.00;;;13.10;99.90;;;;;;4904947;29;20048;-61
2022/05/26 02:54:24;;;;;;;0.00;0.00;;;13.00;99.90;;;;;;4905133;29;20044;-61
2022/05/26 02:57:19;;;;;;;0.00;0.00;;;13.00;99.90;;;;;;4904918;29;20457;-61
2022/05/26 03:00:03;;;;;;;0.10;0.10;;;13.10;99.90;;;;;;4903768;29;20147;-60
2022/05/26 03:02:42;;;;;;;0.00;0.00;;;13.10;99.90;;;;;;4904972;29;20104;-61
2022/05/26 03:05:26;;;;;;;0.00;0.00;;;13.20;99.90;;;;;;4904393;29;20140;-61
2022/05/26 03:07:54;;;;;;;0.00;0.00;;;13.10;99.90;;;;;;4905118;29;20044;-61
2022/05/26 03:10:26;;;;;;;0.00;0.00;;;13.10;99.90;;;;;;4887824;29;20052;-61
2022/05/26 03:12:56;;;;;;;0.00;0.00;;;13.20;99.90;;;;;;4905139;29;20056;-61
2022/05/26 03:15:22;;;;;;;0.00;0.00;;;13.10;99.90;;;;;;4904044;29;20058;-61
2022/05/26 03:17:48;;;;;;;0.00;0.00;;;13.10;99.90;;;;;;4904579;29;20059;-60
2022/05/26 03:20:14;;;;;;;0.00;0.00;;;13.10;99.90;;;;;;4905017;29;20059;-61
2022/05/26 03:22:40;;;;;;;0.00;0.00;;;13.10;99.90;;;;;;4904539;29;20040;-61
2022/05/26 03:25:06;;;;;;;0.00;0.00;;;13.10;99.90;;;;;;4904528;29;20048;-61
2022/05/26 03:27:33;;;;;;;0.30;0.17;;;13.00;99.90;;;;;;4904121;29;20045;-61
2022/05/26 03:29:59;;;;;;;1.08;0.10;;;13.10;99.90;;;;;;4904107;29;20688;-61
2022/05/26 03:32:25;;;;;;;0.38;0.13;;;12.90;99.90;;;;;;4904503;29;20076;-61
2022/05/26 03:43:06;;;;;;;0.00;0.00;;;12.90;99.90;;;;;;4908623;29;20079;-61
2022/05/26 03:45:34;;;;;;;0.00;0.00;;;13.00;99.90;;;;;;4894601;29;20052;-61
2022/05/26 03:48:00;;;;;;;0.00;0.00;;;13.00;99.90;;;;;;4913568;29;20716;-61
2022/05/26 03:50:26;;;;;;;0.00;0.00;;;12.90;99.90;;;;;;4907806;29;20084;-61
2022/05/26 03:52:52;;;;;;;0.00;0.00;;;12.90;99.90;;;;;;4908164;29;20090;-61
2022/05/26 03:55:19;;;;;;;0.00;0.00;;;12.90;99.90;;;;;;4907582;29;20503;-61
2022/05/26 03:57:44;;;;;;;0.17;0.15;;;12.90;99.90;;;;;;4908650;29;20161;-61
2022/05/26 04:00:12;;;;;;;0.00;0.00;;;12.90;99.90;;;;;;4907142;29;20066;-61
2022/05/26 04:02:38;;;;;;;0.00;0.00;;;13.00;99.90;;;;;;4907288;29;20470;-61
2022/05/26 04:05:04;;;;;;;0.00;0.00;;;12.90;99.90;;;;;;4907860;29;20074;-61
2022/05/26 04:07:29;;;;;;;0.00;0.00;;;12.90;99.90;;;;;;4907592;29;20079;-62
2022/05/26 04:09:55;;;;;;;0.00;0.00;;;12.90;99.90;;;;;;4907816;29;20539;-61
2022/05/26 04:12:20;;;;;;;0.00;0.00;;;12.80;99.90;;;;;;4907225;29;20052;-61
2022/05/26 04:14:46;;;;;;;0.00;0.00;;;13.00;99.90;;;;;;4906712;29;20143;-61
2022/05/26 04:17:12;;;;;;;0.00;0.00;;;12.90;99.90;;;;;;4907674;29;20059;-60
2022/05/26 04:19:42;;;;;;;0.00;0.00;;;12.90;99.90;;;;;;4906882;29;20522;-61
2022/05/26 04:22:15;;;;;;;0.00;0.00;;;13.00;99.90;;;;;;4907513;29;20052;-61
2022/05/26 04:24:42;;;;;;;0.00;0.00;;;13.00;99.90;;;;;;4891884;29;20118;-62
2022/05/26 04:27:08;;;;;;;0.38;0.00;;;12.90;99.90;;;;;;4907251;29;20161;-61
2022/05/26 04:29:35;;;;;;;0.00;0.00;;;13.00;99.90;;;;;;4889496;29;20123;-61
2022/05/26 04:32:02;;;;;;;0.35;0.10;;;13.00;99.90;;;;;;4907693;29;20044;-61
2022/05/26 04:34:27;;;;;;;0.10;0.10;;;13.00;99.90;;;;;;4907029;29;20048;-60
2022/05/26 04:36:53;;;;;;;0.00;0.00;;;13.00;99.90;;;;;;4906777;29;20044;-60
2022/05/26 04:39:19;;;;;;;0.00;0.00;;;13.00;99.90;;;;;;4906919;29;20195;-61
2022/05/26 04:41:45;;;;;;;0.00;0.00;;;13.10;99.90;;;;;;4907625;29;20063;-61
2022/05/26 04:44:12;;;;;;;0.00;0.00;;;13.10;99.90;;;;;;4906479;29;20179;-61
2022/05/26 04:46:38;;;;;;;0.00;0.00;;;13.20;99.90;;;;;;4917748;29;20052;-61
2022/05/26 04:49:05;;;;;;;0.00;0.00;;;13.20;99.90;;;;;;4906952;29;20066;-61
2022/05/26 04:51:34;;;;;;;0.00;0.00;;;13.30;99.90;;;;;;4906816;29;20048;-61
2022/05/26 04:54:03;;;;;;;0.00;0.00;;;13.30;99.90;;;;;;4906862;29;20516;-61
2022/05/26 04:56:29;;;;;;;0.68;0.28;;;13.30;99.90;;;;;;4907055;29;20509;-61
2022/05/26 04:58:55;;;;;;;0.15;0.15;;;13.50;99.90;;;;;;4906736;29;20157;-60
2022/05/26 05:01:21;;;;;;;0.00;0.00;;;13.60;99.90;;;;;;4905287;29;20507;-61
2022/05/26 05:03:48;;;;;;;0.00;0.00;;;13.50;99.90;;;;;;4906687;29;20064;-61
2022/05/26 05:06:15;;;;;;;0.00;0.00;;;13.80;99.90;;;;;;4906835;29;20040;-61
2022/05/26 05:08:42;;;;;;;0.00;0.00;;;14.20;99.90;;;;;;4906643;29;20041;-61
2022/05/26 05:11:11;;;;;;;0.00;0.00;;;14.50;99.90;;;;;;4889640;29;20502;-61
2022/05/26 05:13:38;;;;;;;0.00;0.00;;;14.90;99.90;;;;;;4906180;29;20384;-61
2022/05/26 05:16:10;;;;;;;0.00;0.00;;;15.10;99.90;;;;;;4905259;29;20158;-61
2022/05/26 05:18:36;;;;;;;0.00;0.00;;;15.30;99.90;;;;;;4904859;29;20044;-61
2022/05/26 05:21:06;;;;;;;0.00;0.00;;;15.40;99.90;;;;;;4906363;29;20152;-61
2022/05/26 05:23:33;;;;;;;0.00;0.00;;;15.30;99.90;;;;;;4906447;29;20047;-61
2022/05/26 05:26:01;;;;;;;0.00;0.00;;;15.30;99.90;;;;;;4906266;29;20078;-61
2022/05/26 05:28:40;;;;;;;0.00;0.00;;;15.10;99.90;;;;;;4906162;29;20076;-61
2022/05/26 05:31:16;;;;;;;0.00;0.00;;;15.10;99.90;;;;;;4905008;29;20389;-61
2022/05/26 05:33:50;;;;;;;0.00;0.00;;;15.20;99.90;;;;;;4889779;29;20052;-60
2022/05/26 05:36:23;;;;;;;0.00;0.00;;;15.40;99.90;;;;;;4906073;29;20044;-60
2022/05/26 05:38:49;;;;;;;4.80;0.43;;;15.80;99.90;;;;;;4906043;29;20578;-61
2022/05/26 05:41:15;;;;;;;0.00;0.00;;;15.60;99.90;;;;;;4889514;29;20055;-61
2022/05/26 05:43:41;;;;;;;0.00;0.00;;;15.70;99.90;;;;;;4906049;29;20040;-61
2022/05/26 05:46:08;;;;;;;0.00;0.00;;;15.80;99.90;;;;;;4914127;29;20083;-61
2022/05/26 05:48:34;;;;;;;0.00;0.00;;;15.90;99.90;;;;;;4906958;29;20452;-60
2022/05/26 05:51:01;;;;;;;0.00;0.00;;;16.00;99.90;;;;;;4905859;29;20427;-61
2022/05/26 05:53:27;;;;;;;0.00;0.00;;;16.10;99.90;;;;;;4905286;29;20043;-61
2022/05/26 05:55:52;;;;;;;0.00;0.00;;;16.00;99.90;;;;;;4906246;29;20048;-61
2022/05/26 05:58:18;;;;;;;3.53;0.20;;;16.00;99.90;;;;;;4905395;29;20468;-61
2022/05/26 06:00:44;;;;;;;0.00;0.00;;;16.00;99.90;;;;;;4905347;29;20103;-62
2022/05/26 06:03:10;;;;;;;0.00;0.00;;;16.00;99.90;;;;;;4904936;29;20529;-61
2022/05/26 06:05:36;;;;;;;0.00;0.00;;;15.80;99.90;;;;;;4905682;29;20087;-61
2022/05/26 06:08:02;;;;;;;0.00;0.00;;;15.90;99.90;;;;;;4905632;29;20400;-61
2022/05/26 06:10:30;;;;;;;0.00;0.00;;;16.20;99.90;;;;;;4904933;29;20040;-61
2022/05/26 06:12:56;;;;;;;0.00;0.00;;;16.30;99.90;;;;;;4905429;29;20654;-61
2022/05/26 06:15:22;;;;;;;0.32;0.30;;;16.30;99.90;;;;;;4904572;29;20055;-61
2022/05/26 06:17:48;;;;;;;0.00;0.00;;;16.20;99.90;;;;;;4905368;29;20052;-60
2022/05/26 06:20:14;;;;;;;0.00;0.00;;;16.30;99.90;;;;;;4905275;29;20048;-61
2022/05/26 06:22:42;;;;;;;0.00;0.00;;;16.40;99.90;;;;;;4905439;29;20123;-61
2022/05/26 06:25:09;;;;;;;0.00;0.00;;;16.70;99.90;;;;;;4905329;29;20059;-61
2022/05/26 06:30:21;;;;;;;0.00;0.00;;;16.90;99.90;;;;;;4904694;29;20059;-61
2022/05/26 06:38:22;;;;;;;0.00;0.00;;;16.80;99.90;;;;;;4904513;29;20044;-62
2022/05/26 06:40:49;;;;;;;0.00;0.00;;;16.70;99.90;;;;;;4888229;29;20048;-61
2022/05/26 06:43:15;;;;;;;0.00;0.00;;;16.90;99.90;;;;;;4905194;29;20044;-61
2022/05/26 06:45:42;;;;;;;0.00;0.00;;;17.20;99.90;;;;;;4910342;29;20047;-61
2022/05/26 06:48:08;;;;;;;0.00;0.00;;;17.00;99.90;;;;;;4909572;29;20399;-61
2022/05/26 06:50:34;;;;;;;0.00;0.00;;;17.20;99.90;;;;;;4904919;29;20168;-61
2022/05/26 06:53:00;;;;;;;0.00;0.00;;;17.40;99.90;;;;;;4888185;29;20048;-61
2022/05/26 06:55:26;;;;;;;0.00;0.00;;;17.10;99.90;;;;;;4904354;29;20498;-61
2022/05/26 06:57:52;;;;;;;0.00;0.00;;;17.00;99.90;;;;;;4888165;29;20060;-60
2022/05/26 07:00:18;;;;;;;0.00;0.00;;;17.10;99.90;;;;;;4887129;29;20052;-61
2022/05/26 07:02:45;;;;;;;0.00;0.00;;;17.20;99.90;;;;;;4887724;29;20147;-61
2022/05/26 07:05:12;;;;;;;0.00;0.00;;;17.10;99.90;;;;;;4905082;29;20055;-61
2022/05/26 07:07:41;;;;;;;0.00;0.00;;;17.00;99.90;;;;;;4904878;29;20046;-62
2022/05/26 07:10:09;;;;;;;0.00;0.00;;;17.00;99.90;;;;;;4904293;29;20055;-61
2022/05/26 07:12:35;;;;;;;0.00;0.00;;;17.00;99.90;;;;;;4904577;29;20128;-64
2022/05/26 07:15:03;;;;;;;0.00;0.00;;;16.90;99.90;;;;;;4905195;29;20183;-61
2022/05/26 07:17:29;;;;;;;0.00;0.00;;;16.60;99.90;;;;;;4908331;29;20126;-61
2022/05/26 07:19:55;;;;;;;0.08;0.08;;;16.30;99.90;;;;;;4908110;29;20056;-61
2022/05/26 07:22:22;;;;;;;0.00;0.00;;;16.10;99.90;;;;;;4908504;29;20491;-61
2022/05/26 07:24:49;;;;;;;0.00;0.00;;;16.10;99.90;;;;;;4908486;29;20058;-61
2022/05/26 07:27:15;;;;;;;0.00;0.00;;;16.00;99.90;;;;;;4908324;29;20124;-62
2022/05/26 07:29:41;;;;;;;0.00;0.00;;;15.90;99.90;;;;;;4907961;29;20059;-62
2022/05/26 07:32:07;;;;;;;0.00;0.00;;;15.90;99.90;;;;;;4908272;29;20503;-61
2022/05/26 07:34:33;;;;;;;0.00;0.00;;;15.90;99.90;;;;;;4908087;29;20526;-62
2022/05/26 07:42:32;;;;;;;0.00;0.00;;;15.50;99.90;;;;;;4907810;29;20044;-61
2022/05/26 07:44:59;;;;;;;0.00;0.00;;;15.50;99.90;;;;;;4909831;29;20043;-61
2022/05/26 07:47:27;;;;;;;0.00;0.00;;;15.60;99.90;;;;;;4915628;29;20044;-62
2022/05/26 07:49:54;;;;;;;0.00;0.00;;;15.60;99.90;;;;;;4908065;29;20419;-61
2022/05/26 07:52:19;;;;;;;0.00;0.00;;;15.70;99.90;;;;;;4907812;29;20443;-62
2022/05/26 07:54:46;;;;;;;0.00;0.00;;;15.80;99.90;;;;;;4908175;29;20099;-62
2022/05/26 07:57:22;;;;;;;0.00;0.00;;;15.90;99.90;;;;;;4907550;29;20135;-62
2022/05/26 07:59:49;;;;;;;0.20;0.20;;;16.20;99.90;;;;;;4907202;29;20052;-62
2022/05/26 08:02:15;;;;;;;0.00;0.00;;;16.30;99.90;;;;;;4908291;29;20536;-61
2022/05/26 08:04:40;;;;;;;0.00;0.00;;;16.40;99.90;;;;;;4907328;29;20503;-61
2022/05/26 08:07:06;;;;;;;0.00;0.00;;;16.50;99.90;;;;;;4908188;29;20122;-62
2022/05/26 08:09:31;;;;;;;0.00;0.00;;;16.40;99.90;;;;;;4907324;29;20180;-62
2022/05/26 08:11:57;;;;;;;0.00;0.00;;;16.50;99.90;;;;;;4907130;29;20119;-62
2022/05/26 08:14:23;;;;;;;0.10;0.10;;;16.50;99.90;;;;;;4906601;29;20051;-62
2022/05/26 08:16:49;;;;;;;0.00;0.00;;;16.40;99.90;;;;;;4907852;29;20063;-62
2022/05/26 08:19:16;;;;;;;0.00;0.00;;;16.70;99.90;;;;;;4907786;29;20135;-61
2022/05/26 08:21:42;;;;;;;0.00;0.00;;;16.50;99.90;;;;;;4916786;29;20074;-61
2022/05/26 08:24:08;;;;;;;0.00;0.00;;;16.70;99.90;;;;;;4925338;29;20050;-61
2022/05/26 08:26:34;;;;;;;0.00;0.00;;;16.80;99.90;;;;;;4923969;29;20035;-61
2022/05/26 08:28:59;;;;;;;0.00;0.00;;;16.90;99.90;;;;;;4923735;29;20107;-61
2022/05/26 08:31:25;;;;;;;1.00;0.35;;;17.00;99.90;;;;;;4925897;29;20040;-62
2022/05/26 08:33:52;;;;;;;0.00;0.00;;;17.20;99.90;;;;;;4926082;29;20134;-62
2022/05/26 08:36:21;;;;;;;0.00;0.00;;;17.20;99.90;;;;;;4924745;29;20127;-62
2022/05/26 08:38:47;;;;;;;0.00;0.00;;;17.20;99.90;;;;;;4924896;29;20048;-62
2022/05/26 08:41:20;;;;;;;0.00;0.00;;;17.40;99.90;;;;;;4926827;29;20047;-62
2022/05/26 08:43:53;;;;;;;0.00;0.00;;;17.40;99.90;;;;;;4925065;29;20436;-62
2022/05/26 08:46:19;;;;;;;0.00;0.00;;;17.60;99.90;;;;;;4918958;29;20058;-62
2022/05/26 08:49:06;;;;;;;0.00;0.00;;;17.70;99.90;;;;;;4907056;29;20449;-62
2022/05/26 08:51:51;;;;;;;0.00;0.00;;;17.90;99.90;;;;;;4906038;29;20488;-62
2022/05/26 08:54:26;;;;;;;0.00;0.00;;;17.60;99.90;;;;;;4906611;29;20119;-63
2022/05/26 08:56:56;;;;;;;0.00;0.00;;;17.50;99.90;;;;;;4906218;29;20052;-63
2022/05/26 08:59:27;;;;;;;0.00;0.00;;;17.70;99.90;;;;;;4905752;29;20419;-63
2022/05/26 09:01:55;;;;;;;0.10;0.10;;;18.10;99.90;;;;;;4890300;29;20512;-63
2022/05/26 09:04:22;;;;;;;0.00;0.00;;;17.90;99.90;;;;;;4906188;29;20052;-63
2022/05/26 09:15:05;;;;;;;0.08;0.08;;;18.10;99.90;;;;;;4905299;29;20052;-63
2022/05/26 09:17:31;;;;;;;0.00;0.00;;;18.00;99.90;;;;;;4906257;29;20055;-63
2022/05/26 09:19:58;;;;;;;0.00;0.00;;;18.00;99.90;;;;;;4906315;29;20048;-63
2022/05/26 09:22:32;;;;;;;0.00;0.00;;;17.90;99.90;;;;;;4905389;29;20052;-63
2022/05/26 09:24:58;;;;;;;0.00;0.00;;;18.00;99.90;;;;;;4906289;29;20112;-63
2022/05/26 09:27:28;;;;;;;0.00;0.00;;;18.40;99.90;;;;;;4906244;29;20051;-63
2022/05/26 09:30:12;;;;;;;0.00;0.00;;;18.30;99.90;;;;;;4905019;29;20083;-63
2022/05/26 09:32:38;;;;;;;0.00;0.00;;;18.30;99.90;;;;;;4906109;29;20099;-63
2022/05/26 09:35:19;;;;;;;0.00;0.00;;;18.60;99.90;;;;;;4905818;29;20052;-63
2022/05/26 09:37:54;;;;;;;0.00;0.00;;;18.60;99.90;;;;;;4888762;29;20040;-64
2022/05/26 09:40:35;;;;;;;0.00;0.00;;;18.70;99.90;;;;;;4905950;29;20056;-64
2022/05/26 09:43:04;;;;;;;0.00;0.00;;;18.90;99.90;;;;;;4906161;29;20589;-64
2022/05/26 09:45:44;;;;;;;0.00;0.00;;;18.70;99.90;;;;;;4909564;29;20122;-64
2022/05/26 09:48:32;;;;;;;0.00;0.00;;;19.00;99.90;;;;;;4910356;29;20139;-64
2022/05/26 09:51:12;;;;;;;0.20;0.13;;;19.30;99.90;;;;;;4905974;29;20071;-77
2022/05/26 09:53:44;;;;;;;0.00;0.00;;;19.40;99.90;;;;;;4905627;29;20427;-64
2022/05/26 09:56:28;;;;;;;0.00;0.00;;;19.40;99.90;;;;;;4905913;29;20044;-64
2022/05/26 09:58:54;;;;;;;0.00;0.00;;;19.50;99.90;;;;;;4904656;29;20040;-63
2022/05/26 10:01:23;;;;;;;0.00;0.00;;;19.30;99.90;;;;;;4905692;29;20204;-62
2022/05/26 10:04:05;;;;;;;0.00;0.00;;;19.40;99.90;;;;;;4905680;29;20095;-62
2022/05/26 10:06:54;;;;;;;0.00;0.00;;;19.50;99.90;;;;;;4900329;29;20054;-62
2022/05/26 10:09:44;;;;;;;0.00;0.00;;;19.00;99.90;;;;;;4922612;29;20470;-62
2022/05/26 10:12:22;;;;;;;0.00;0.00;;;19.10;99.90;;;;;;4924213;29;20056;-62
2022/05/26 10:15:07;;;;;;;0.00;0.00;;;19.10;99.90;;;;;;4922873;29;20130;-62
2022/05/26 10:17:59;;;;;;;0.00;0.00;;;19.10;99.90;;;;;;4924298;29;20050;-62
2022/05/26 10:20:57;;;;;;;0.25;0.03;;;19.10;99.90;;;;;;4923659;29;20051;-63
2022/05/26 10:23:28;;;;;;;0.00;0.00;;;19.20;99.90;;;;;;4923835;29;20044;-63
2022/05/26 10:26:14;;;;;;;0.30;0.05;;;19.30;99.90;;;;;;4923569;29;20035;-62
2022/05/26 10:28:51;;;;;;;0.00;0.00;;;19.80;99.90;;;;;;4922383;29;20083;-62
2022/05/26 10:31:51;;;;;;;0.00;0.00;;;19.70;99.90;;;;;;4923834;29;20047;-62
2022/05/26 10:34:44;;;;;;;0.00;0.00;;;19.30;99.90;;;;;;4923846;29;20141;-63
2022/05/26 10:37:23;;;;;;;0.85;0.85;;;19.30;99.90;;;;;;4923228;29;20640;-62
2022/05/26 10:40:26;;;;;;;0.00;0.00;;;19.20;99.90;;;;;;4923868;29;20067;-62
2022/05/26 10:42:56;;;;;;;0.00;0.00;;;19.80;99.90;;;;;;4924113;29;20055;-63
2022/05/26 10:45:31;;;;;;;0.00;0.00;;;19.40;99.90;;;;;;4909572;29;20047;-63
2022/05/26 10:48:20;;;;;;;0.00;0.00;;;19.10;99.90;;;;;;4910459;29;20111;-68
2022/05/26 10:51:08;;;;;;;0.10;0.10;;;19.30;99.90;;;;;;4888092;29;20080;-66
2022/05/26 10:53:55;;;;;;;0.00;0.00;;;19.30;99.90;;;;;;4868697;29;20056;-64
2022/05/26 10:56:40;;;;;;;0.00;0.00;;;19.30;99.90;;;;;;4903936;29;20841;-64
2022/05/26 10:59:18;;;;;;;0.10;0.10;;;19.20;99.90;;;;;;4904070;29;20052;-64
2022/05/26 11:01:53;;;;;;;0.00;0.00;;;19.20;99.90;;;;;;4904428;29;20044;-64
2022/05/26 11:04:44;;;;;;;0.00;0.00;;;19.50;99.90;;;;;;4872096;29;20059;-61
2022/05/26 11:07:19;;;;;;;0.00;0.00;;;19.50;99.90;;;;;;4904602;29;20048;-64
2022/05/26 11:10:11;;;;;;;0.00;0.00;;;19.40;99.90;;;;;;4905050;29;20048;-64
2022/05/26 11:12:55;;;;;;;0.00;0.00;;;19.30;99.90;;;;;;4890195;29;20076;-64
2022/05/26 11:18:33;;;;;;;0.00;0.00;;;19.80;99.90;;;;;;4904396;29;20072;-65
2022/05/26 11:20:58;;;;;;;0.00;0.00;;;19.60;99.90;;;;;;4903987;29;20052;-64
2022/05/26 11:23:27;;;;;;;0.00;0.00;;;19.40;99.90;;;;;;4904229;29;20127;-64
2022/05/26 11:26:02;;;;;;;0.00;0.00;;;19.30;99.90;;;;;;4904960;29;20094;-65
2022/05/26 11:28:44;;;;;;;0.00;0.00;;;19.00;99.90;;;;;;4903230;29;20044;-64
2022/05/26 11:37:29;;;;;;;0.00;0.00;;;19.50;99.90;;;;;;4904741;29;20815;-64
2022/05/26 11:40:02;;;;;;;0.08;0.08;;;19.30;99.90;;;;;;4904468;29;20048;-64
2022/05/26 11:42:35;;;;;;;0.00;0.00;;;19.00;99.90;;;;;;4904745;29;20079;-65
2022/05/26 11:45:24;;;;;;;0.10;0.10;;;19.40;99.90;;;;;;4876019;29;20793;-64
2022/05/26 11:48:01;;;;;;;0.00;0.00;;;19.70;99.90;;;;;;4916606;29;20095;-64
2022/05/26 11:50:48;;;;;;;0.10;0.10;;;19.80;99.90;;;;;;4923243;29;20062;-66
2022/05/26 11:53:38;;;;;;;0.00;0.00;;;19.40;99.90;;;;;;4923997;29;20126;-64
2022/05/26 11:56:24;;;;;;;0.10;0.10;;;19.20;99.90;;;;;;4922826;29;20083;-64
2022/05/26 11:59:18;;;;;;;0.25;0.20;;;18.80;99.90;;;;;;4922315;29;20145;-65
2022/05/26 12:01:53;;;;;;;0.00;0.00;;;18.70;99.90;;;;;;4926073;29;20044;-65
2022/05/26 12:04:26;;;;;;;1.90;0.35;;;18.60;99.90;;;;;;4926642;29;20100;-65
2022/05/26 12:07:04;;;;;;;0.10;0.10;;;18.70;99.90;;;;;;4926560;29;20051;-64
2022/05/26 12:09:54;;;;;;;0.00;0.00;;;18.60;99.90;;;;;;4926496;29;20115;-64
2022/05/26 12:12:23;;;;;;;0.00;0.00;;;18.30;99.90;;;;;;4926514;29;20111;-64
2022/05/26 12:14:52;;;;;;;0.20;0.20;;;18.10;99.90;;;;;;4925867;29;20055;-64
2022/05/26 12:17:30;;;;;;;0.00;0.00;;;18.50;99.90;;;;;;4925658;29;20771;-64
2022/05/26 12:19:58;;;;;;;0.00;0.00;;;18.70;99.90;;;;;;4926649;29;20157;-64
2022/05/26 12:22:55;;;;;;;0.00;0.00;;;18.90;99.90;;;;;;4926313;29;20044;-64
2022/05/26 12:25:26;;;;;;;0.10;0.10;;;19.00;99.90;;;;;;4890348;29;20688;-64
2022/05/26 12:27:54;;;;;;;0.10;0.10;;;18.70;99.90;;;;;;4925720;29;20052;-64
2022/05/26 12:30:31;;;;;;;0.00;0.00;;;18.50;99.90;;;;;;4926192;29;20110;-64
2022/05/26 12:33:00;;;;;;;0.43;0.10;;;18.40;99.90;;;;;;4926100;29;20056;-63
2022/05/26 12:35:31;;;;;;;0.00;0.00;;;18.30;99.90;;;;;;4925645;29;20044;-63
2022/05/26 12:38:13;;;;;;;0.00;0.00;;;18.20;99.90;;;;;;4926408;29;20052;-64
2022/05/26 12:41:03;;;;;;;0.00;0.00;;;18.10;99.90;;;;;;4926036;29;20047;-63
2022/05/26 12:44:03;;;;;;;0.00;0.00;;;18.20;99.90;;;;;;4908416;29;20127;-63
2022/05/26 12:46:31;;;;;;;0.00;0.00;;;18.40;99.90;;;;;;4901499;29;20043;-63
2022/05/26 12:49:04;;;;;;;0.00;0.00;;;18.70;99.90;;;;;;4890005;29;20738;-64
2022/05/26 12:51:37;;;;;;;0.00;0.00;;;18.70;99.90;;;;;;4906574;29;20415;-64
2022/05/26 12:54:07;;;;;;;0.00;0.00;;;18.60;99.90;;;;;;4907093;29;20063;-64
2022/05/26 12:56:56;;;;;;;0.00;0.00;;;18.40;99.90;;;;;;4906945;29;20484;-64
2022/05/26 12:59:26;;;;;;;0.00;0.00;;;17.90;99.90;;;;;;4906042;29;20056;-63
2022/05/26 13:01:52;;;;;;;0.00;0.00;;;18.10;99.90;;;;;;4906811;29;20048;-63
2022/05/26 13:04:21;;;;;;;0.10;0.10;;;18.30;99.90;;;;;;4906097;29;20067;-63
2022/05/26 13:06:51;;;;;;;0.45;0.32;;;18.60;99.90;;;;;;4906919;29;20128;-68
2022/05/26 13:09:29;;;;;;;0.00;0.00;;;18.30;99.90;;;;;;4889875;29;20112;-63
2022/05/26 13:12:02;;;;;;;0.10;0.10;;;18.30;99.90;;;;;;4906000;29;20164;-63
2022/05/26 13:14:35;;;;;;;0.00;0.00;;;18.60;99.90;;;;;;4911044;29;20076;-64
2022/05/26 13:17:10;;;;;;;0.00;0.00;;;18.50;99.90;;;;;;4911354;29;20084;-64
2022/05/26 13:20:00;;;;;;;0.00;0.00;;;18.30;99.90;;;;;;4911412;29;20067;-63
2022/05/26 13:22:31;;;;;;;0.50;0.50;;;18.10;99.90;;;;;;4911503;29;20099;-64
2022/05/26 13:25:10;;;;;;;0.30;0.00;;;17.90;99.90;;;;;;4912596;29;20054;-64
2022/05/26 13:27:47;;;;;;;0.00;0.00;;;17.90;99.90;;;;;;4911228;29;20064;-63
2022/05/26 13:33:08;;;;;;;0.00;0.00;;;18.00;99.90;;;;;;4911422;29;20131;-65
2022/05/26 13:35:42;;;;;;;0.25;0.25;;;18.00;99.90;;;;;;4911927;29;20416;-64
2022/05/26 13:38:32;;;;;;;0.00;0.00;;;17.70;99.90;;;;;;4912744;29;20036;-64
2022/05/26 13:41:00;;;;;;;0.10;0.10;;;17.80;99.90;;;;;;4911519;29;20044;-64
2022/05/26 13:43:28;;;;;;;0.00;0.00;;;17.70;99.90;;;;;;4911700;29;20036;-64
2022/05/26 13:45:55;;;;;;;0.03;0.03;;;17.80;99.90;;;;;;4893976;29;20052;-64
2022/05/26 13:48:29;;;;;;;0.00;0.00;;;17.90;99.90;;;;;;4911257;29;20119;-64
2022/05/26 13:51:17;;;;;;;0.00;0.00;;;17.80;99.90;;;;;;4910688;29;20135;-64
2022/05/26 13:53:50;;;;;;;0.00;0.00;;;17.80;99.90;;;;;;4910815;29;20075;-64
2022/05/26 13:56:29;;;;;;;0.40;0.40;;;17.90;99.90;;;;;;4911823;29;20035;-64
2022/05/26 13:58:57;;;;;;;0.00;0.00;;;17.70;99.90;;;;;;4910830;29;20137;-64